createdAt,value
2023-04-05T00:02:56.209Z,2.60
2023-04-05T00:08:00.885Z,2.60
2023-04-05T00:13:02.575Z,2.50
2023-04-05T00:18:04.692Z,2.50
2023-04-05T00:23:06.837Z,2.40
2023-04-05T00:28:08.613Z,2.40
2023-04-05T00:33:12.814Z,2.20
2023-04-05T00:38:14.550Z,2.20
2023-04-05T00:43:16.500Z,2.30
2023-04-05T00:48:18.273Z,2.30
2023-04-05T00:53:21.036Z,2.30
2023-04-05T00:58:23.874Z,2.10
2023-04-05T01:03:29.203Z,2.20
2023-04-05T01:08:34.249Z,2.30
2023-04-05T01:13:36.544Z,2.10
2023-04-05T01:18:38.636Z,2.10
2023-04-05T01:24:00.039Z,2.00
2023-04-05T01:29:04.885Z,-0.70
2023-04-05T01:34:32.256Z,1.70
2023-04-05T01:39:36.442Z,1.70
2023-04-05T01:44:38.656Z,1.50
2023-04-05T01:49:40.711Z,1.50
2023-04-05T01:54:42.713Z,1.60
2023-04-05T01:59:44.527Z,1.80
2023-04-05T02:04:46.554Z,1.80
2023-04-05T02:09:48.602Z,1.60
2023-04-05T02:14:51.814Z,1.60
2023-04-05T02:19:53.670Z,1.70
2023-04-05T02:24:55.663Z,1.70
2023-04-05T02:29:59.092Z,1.50
2023-04-05T02:35:01.826Z,1.50
2023-04-05T02:40:08.527Z,1.50
2023-04-05T02:45:10.585Z,1.40
2023-04-05T02:50:12.655Z,1.30
2023-04-05T02:55:14.427Z,1.20
2023-04-05T03:00:17.104Z,1.50
2023-04-05T03:05:20.768Z,1.60
2023-04-05T03:10:22.991Z,1.60
2023-04-05T03:20:27.801Z,1.00
2023-04-05T03:30:33.593Z,1.10
2023-04-05T03:35:35.457Z,1.10
2023-04-05T03:40:37.377Z,1.10
2023-04-05T03:45:39.312Z,1.10
2023-04-05T03:50:41.422Z,1.10
2023-04-05T03:55:46.836Z,1.00
2023-04-05T04:00:48.986Z,1.00
2023-04-05T04:05:50.875Z,1.00
2023-04-05T04:10:53.103Z,1.10
2023-04-05T04:20:58.864Z,1.00
2023-04-05T04:26:01.813Z,0.90
2023-04-05T04:31:05.143Z,0.80
2023-04-05T04:36:13.585Z,0.90
2023-04-05T04:46:21.018Z,0.70
2023-04-05T04:51:23.190Z,0.70
2023-04-05T04:56:25.179Z,0.80
2023-04-05T05:01:27.299Z,0.60
2023-04-05T05:06:29.865Z,0.70
2023-04-05T05:11:32.482Z,1.00
2023-04-05T05:16:34.567Z,0.80
2023-04-05T05:21:36.664Z,0.80
2023-04-05T05:26:46.649Z,0.70
2023-04-05T05:31:48.697Z,0.60
2023-04-05T05:36:52.411Z,0.50
2023-04-05T05:41:54.435Z,1.00
2023-04-05T05:46:56.531Z,1.10
2023-04-05T05:51:58.686Z,1.30
2023-04-05T05:57:00.851Z,1.30
2023-04-05T06:02:02.887Z,1.60
2023-04-05T06:07:04.589Z,1.60
2023-04-05T06:12:06.676Z,1.60
2023-04-05T06:17:08.659Z,1.80
2023-04-05T06:22:10.502Z,1.90
2023-04-05T06:27:14.844Z,2.10
2023-04-05T06:32:16.929Z,2.10
2023-04-05T06:37:18.633Z,2.20
2023-04-05T06:42:20.707Z,2.30
2023-04-05T06:47:22.703Z,2.40
2023-04-05T06:52:24.793Z,2.60
2023-04-05T06:57:27.174Z,2.90
2023-04-05T07:02:29.003Z,2.90
2023-04-05T07:07:31.076Z,3.20
2023-04-05T07:12:32.992Z,3.60
2023-04-05T07:17:35.741Z,3.50
2023-04-05T07:22:37.642Z,3.80
2023-04-05T07:27:39.974Z,4.10
2023-04-05T07:32:41.835Z,4.50
2023-04-05T07:37:43.977Z,5.00
2023-04-05T07:42:45.847Z,5.20
2023-04-05T07:47:47.618Z,5.30
2023-04-05T07:52:49.835Z,5.90
2023-04-05T07:57:51.636Z,6.10
2023-04-05T08:02:53.749Z,7.20
2023-04-05T08:07:55.890Z,7.10
2023-04-05T08:12:57.821Z,7.50
2023-04-05T08:17:59.569Z,7.50
2023-04-05T08:23:01.906Z,7.90
2023-04-05T08:28:03.806Z,7.80
2023-04-05T08:33:06.933Z,8.40
2023-04-05T08:38:08.942Z,8.40
2023-04-05T08:43:28.804Z,9.00
2023-04-05T08:48:35.018Z,9.00
2023-04-05T08:53:37.151Z,9.20
2023-04-05T08:58:40.053Z,9.60
2023-04-05T09:03:43.739Z,9.80
2023-04-05T09:08:46.104Z,9.80
2023-04-05T09:18:51.285Z,10.20
2023-04-05T09:23:54.629Z,10.80
2023-04-05T09:28:56.668Z,11.20
2023-04-05T09:34:00.737Z,11.10
2023-04-05T09:39:07.900Z,11.10
2023-04-05T09:44:09.930Z,11.50
2023-04-05T09:49:12.009Z,11.60
2023-04-05T09:54:13.931Z,11.60
2023-04-05T09:59:17.627Z,12.10
2023-04-05T10:04:24.777Z,12.10
2023-04-05T10:09:26.802Z,12.60
2023-04-05T10:14:28.657Z,12.80
2023-04-05T10:19:43.882Z,12.90
2023-04-05T10:24:52.215Z,12.40
2023-04-05T10:30:28.471Z,13.60
2023-04-05T10:35:51.690Z,13.60
2023-04-05T10:41:12.221Z,14.20
2023-04-05T10:46:22.500Z,14.50
2023-04-05T10:51:26.784Z,13.10
2023-04-05T10:56:29.453Z,13.30
2023-04-05T11:01:32.767Z,14.70
2023-04-05T11:06:36.132Z,13.90
2023-04-05T11:11:49.533Z,13.90
2023-04-05T11:16:54.742Z,14.90
2023-04-05T11:22:02.852Z,13.50
2023-04-05T11:27:10.257Z,14.40
2023-04-05T11:32:13.317Z,15.00
2023-04-05T11:37:15.792Z,14.60
2023-04-05T11:42:18.901Z,15.30
2023-04-05T11:47:24.090Z,15.10
2023-04-05T11:52:26.499Z,15.70
2023-04-05T11:57:29.602Z,15.70
2023-04-05T12:02:35.172Z,15.60
2023-04-05T12:07:37.309Z,15.60
2023-04-05T12:12:42.144Z,15.80
2023-04-05T12:17:45.465Z,14.70
2023-04-05T12:22:49.108Z,15.30
2023-04-05T12:27:50.927Z,16.60
2023-04-05T12:32:56.781Z,16.60
2023-04-05T12:38:01.338Z,15.50
2023-04-05T12:43:08.442Z,15.20
2023-04-05T12:48:13.705Z,15.70
2023-04-05T12:53:23.445Z,15.60
2023-04-05T12:58:37.236Z,16.60
2023-04-05T13:03:39.311Z,14.20
2023-04-05T13:08:41.384Z,15.90
2023-04-05T13:13:43.483Z,16.50
2023-04-05T13:18:46.221Z,16.70
2023-04-05T13:23:48.214Z,17.00
2023-04-05T13:28:50.054Z,16.90
2023-04-05T13:33:52.380Z,16.90
2023-04-05T13:38:54.891Z,17.40
2023-04-05T13:43:58.827Z,17.50
2023-04-05T13:49:02.020Z,17.00
2023-04-05T13:54:04.146Z,17.50
2023-04-05T13:59:06.359Z,17.00
2023-04-05T14:04:08.387Z,15.80
2023-04-05T14:09:10.575Z,16.50
2023-04-05T14:14:12.764Z,17.70
2023-04-05T14:19:16.378Z,17.60
2023-04-05T14:24:18.788Z,17.20
2023-04-05T14:29:20.939Z,17.50
2023-04-05T14:34:23.045Z,16.30
2023-04-05T14:39:25.454Z,15.90
2023-04-05T14:44:28.357Z,14.80
2023-04-05T14:49:30.483Z,14.20
2023-04-05T14:54:32.609Z,14.20
2023-04-05T14:59:34.742Z,14.30
2023-04-05T15:04:37.199Z,15.40
2023-04-05T15:09:39.357Z,15.40
2023-04-05T15:14:41.587Z,16.10
2023-04-05T15:19:43.576Z,17.00
2023-04-05T15:24:45.696Z,16.20
2023-04-05T15:29:47.686Z,16.50
2023-04-05T15:34:49.460Z,16.90
2023-04-05T15:39:51.423Z,15.70
2023-04-05T15:44:53.273Z,16.30
2023-04-05T15:49:55.410Z,15.60
2023-04-05T15:54:57.179Z,14.30
2023-04-05T15:59:59.084Z,13.80
2023-04-05T16:05:01.595Z,13.70
2023-04-05T16:10:04.535Z,13.30
2023-04-05T16:15:06.788Z,13.00
2023-04-05T16:20:09.400Z,13.00
2023-04-05T16:25:11.728Z,12.80
2023-04-05T16:30:14.641Z,12.70
2023-04-05T16:35:16.894Z,12.70
2023-04-05T16:40:18.751Z,12.90
2023-04-05T16:45:21.068Z,12.60
2023-04-05T16:50:23.296Z,12.50
2023-04-05T16:55:25.428Z,12.30
2023-04-05T17:00:27.454Z,12.60
2023-04-05T17:05:29.622Z,12.40
2023-04-05T17:10:32.227Z,12.40
2023-04-05T17:15:34.305Z,12.30
2023-04-05T17:20:36.157Z,12.30
2023-04-05T17:25:38.251Z,12.30
2023-04-05T17:30:40.288Z,12.10
2023-04-05T17:35:42.463Z,11.60
2023-04-05T17:40:44.356Z,11.40
2023-04-05T17:45:46.263Z,11.10
2023-04-05T17:55:55.644Z,10.80
2023-04-05T18:00:58.004Z,10.50
2023-04-05T18:05:59.987Z,10.40
2023-04-05T18:16:04.461Z,7.90
2023-04-05T18:21:06.298Z,9.90
2023-04-05T18:26:08.535Z,9.60
2023-04-05T18:31:11.293Z,9.50
2023-04-05T18:36:13.387Z,9.20
2023-04-05T18:41:15.526Z,9.10
2023-04-05T18:46:18.984Z,8.80
2023-04-05T18:51:22.837Z,8.60
2023-04-05T18:56:24.705Z,8.40
2023-04-05T19:01:26.800Z,8.40
2023-04-05T19:06:30.311Z,8.10
2023-04-05T19:11:32.140Z,8.00
2023-04-05T19:16:34.281Z,7.90
2023-04-05T19:21:36.416Z,7.70
2023-04-05T19:31:41.890Z,7.40
2023-04-05T19:36:43.736Z,7.40
2023-04-05T19:41:45.508Z,7.10
2023-04-05T19:46:47.576Z,7.10
2023-04-05T19:51:50.017Z,7.00
2023-04-05T19:56:51.892Z,6.80
2023-04-05T20:01:54.252Z,6.70
2023-04-05T20:06:56.488Z,6.60
2023-04-05T20:12:01.356Z,6.60
2023-04-05T20:17:04.487Z,6.40
2023-04-05T20:22:08.388Z,6.10
2023-04-05T20:27:12.718Z,5.80
2023-04-05T20:32:15.102Z,5.70
2023-04-05T20:37:16.914Z,5.70
2023-04-05T20:42:18.987Z,5.60
2023-04-05T20:47:20.811Z,5.40
2023-04-05T20:52:22.567Z,5.40
2023-04-05T20:57:24.323Z,5.30
2023-04-05T21:02:26.644Z,5.20
2023-04-05T21:07:28.513Z,5.20
2023-04-05T21:12:30.345Z,5.00
2023-04-05T21:17:33.965Z,4.90
2023-04-05T21:22:35.808Z,4.90
2023-04-05T21:27:38.390Z,4.70
2023-04-05T21:32:40.319Z,4.70
2023-04-05T21:37:42.395Z,4.10
2023-04-05T21:42:44.790Z,4.60
2023-04-05T21:47:46.585Z,4.60
2023-04-05T21:52:48.552Z,4.30
2023-04-05T21:57:50.683Z,4.30
2023-04-05T22:02:52.577Z,4.40
2023-04-05T22:07:54.719Z,4.30
2023-04-05T22:12:57.051Z,4.20
2023-04-05T22:17:58.943Z,4.10
2023-04-05T22:28:03.497Z,3.90
2023-04-05T22:33:05.701Z,4.00
2023-04-05T22:38:08.367Z,3.90
2023-04-05T22:43:10.250Z,3.80
2023-04-05T22:53:14.336Z,3.90
2023-04-05T22:58:17.273Z,3.80
2023-04-05T23:08:21.606Z,3.60
2023-04-05T23:13:23.418Z,3.40
2023-04-05T23:18:25.574Z,3.50
2023-04-05T23:23:27.723Z,3.40
2023-04-05T23:33:32.311Z,3.10
2023-04-05T23:38:34.358Z,3.40
2023-04-05T23:53:41.454Z,3.20
